Avon, Utah
Current Conditions -  °F | °C
As of 6:15 PM on Monday 26 Jan 2015 (Local Time) from KBMC Reporting Station
Clear Clear  
Wind Chill:   Ceiling: Unl
Heat Index:   Visibility: 10mi
Dew Point:   Wind: 5mph
Humidity: 80%   Direction: 170°S
Pressure: 30.22"   Gusts: NA
Location:  41.5397°N, 111.856°W
Report Text: KBMC 270115Z AUTO 17004KT 10SM CLR 05/02 A3022 RMK AO1 T00540022
Loading
Personal Weather Stations






























Interactive Weather Map New forecast layout! Learn more

10-Day Weather Forecast

Advertisements
Track Severe Weather on mobile